sensor_id;sensor_type;location;lat;lon;timestamp;temperature;humidity
35491;DHT22;21605;52.068;20.806;2022-07-23T00:00:46;21.60;85.70
35491;DHT22;21605;52.068;20.806;2022-07-23T00:03:12;21.50;86.10
35491;DHT22;21605;52.068;20.806;2022-07-23T00:05:38;21.50;86.30
35491;DHT22;21605;52.068;20.806;2022-07-23T00:08:05;21.50;86.50
35491;DHT22;21605;52.068;20.806;2022-07-23T00:10:31;21.40;87.50
35491;DHT22;21605;52.068;20.806;2022-07-23T00:12:56;21.40;87.50
35491;DHT22;21605;52.068;20.806;2022-07-23T00:15:22;21.30;87.50
35491;DHT22;21605;52.068;20.806;2022-07-23T00:17:48;21.30;87.70
35491;DHT22;21605;52.068;20.806;2022-07-23T00:20:14;21.30;88.10
35491;DHT22;21605;52.068;20.806;2022-07-23T00:22:58;21.20;88.90
35491;DHT22;21605;52.068;20.806;2022-07-23T00:25:27;21.20;87.60
35491;DHT22;21605;52.068;20.806;2022-07-23T00:27:52;21.10;88.20
35491;DHT22;21605;52.068;20.806;2022-07-23T00:30:18;21.10;89.20
35491;DHT22;21605;52.068;20.806;2022-07-23T00:32:54;21.10;88.30
35491;DHT22;21605;52.068;20.806;2022-07-23T00:35:23;21.00;88.20
35491;DHT22;21605;52.068;20.806;2022-07-23T00:37:49;21.00;89.50
35491;DHT22;21605;52.068;20.806;2022-07-23T00:40:15;20.90;88.60
35491;DHT22;21605;52.068;20.806;2022-07-23T00:42:40;20.90;88.80
35491;DHT22;21605;52.068;20.806;2022-07-23T00:45:07;20.90;89.50
35491;DHT22;21605;52.068;20.806;2022-07-23T00:47:33;20.80;89.70
35491;DHT22;21605;52.068;20.806;2022-07-23T00:49:59;20.80;89.10
35491;DHT22;21605;52.068;20.806;2022-07-23T00:52:25;20.80;89.70
35491;DHT22;21605;52.068;20.806;2022-07-23T00:54:51;20.80;90.10
35491;DHT22;21605;52.068;20.806;2022-07-23T00:57:17;20.70;89.80
35491;DHT22;21605;52.068;20.806;2022-07-23T00:59:43;20.60;89.70
35491;DHT22;21605;52.068;20.806;2022-07-23T01:02:09;20.60;89.40
35491;DHT22;21605;52.068;20.806;2022-07-23T01:04:35;20.60;89.20
35491;DHT22;21605;52.068;20.806;2022-07-23T01:07:01;20.50;89.20
35491;DHT22;21605;52.068;20.806;2022-07-23T01:09:26;20.50;89.30
35491;DHT22;21605;52.068;20.806;2022-07-23T01:11:54;20.50;89.80
35491;DHT22;21605;52.068;20.806;2022-07-23T01:14:20;20.50;89.90
35491;DHT22;21605;52.068;20.806;2022-07-23T01:16:48;20.50;90.00
35491;DHT22;21605;52.068;20.806;2022-07-23T01:19:14;20.40;90.10
35491;DHT22;21605;52.068;20.806;2022-07-23T01:21:46;20.40;90.10
35491;DHT22;21605;52.068;20.806;2022-07-23T01:24:12;20.40;89.70
35491;DHT22;21605;52.068;20.806;2022-07-23T01:26:42;20.30;89.80
35491;DHT22;21605;52.068;20.806;2022-07-23T01:29:08;20.30;89.80
35491;DHT22;21605;52.068;20.806;2022-07-23T01:31:34;20.30;90.10
35491;DHT22;21605;52.068;20.806;2022-07-23T01:33:59;20.30;90.00
35491;DHT22;21605;52.068;20.806;2022-07-23T01:36:25;20.30;89.80
35491;DHT22;21605;52.068;20.806;2022-07-23T01:38:51;20.20;89.80
35491;DHT22;21605;52.068;20.806;2022-07-23T01:41:17;20.20;90.00
35491;DHT22;21605;52.068;20.806;2022-07-23T01:43:43;20.20;89.70
35491;DHT22;21605;52.068;20.806;2022-07-23T01:46:09;20.20;90.00
35491;DHT22;21605;52.068;20.806;2022-07-23T01:48:35;20.10;90.40
35491;DHT22;21605;52.068;20.806;2022-07-23T01:51:01;20.10;90.50
35491;DHT22;21605;52.068;20.806;2022-07-23T01:53:27;20.10;90.00
35491;DHT22;21605;52.068;20.806;2022-07-23T01:55:52;20.10;90.00
35491;DHT22;21605;52.068;20.806;2022-07-23T01:58:18;20.10;90.20
35491;DHT22;21605;52.068;20.806;2022-07-23T02:03:19;20.10;90.10
35491;DHT22;21605;52.068;20.806;2022-07-23T02:05:44;20.10;90.20
35491;DHT22;21605;52.068;20.806;2022-07-23T02:08:10;20.10;90.30
35491;DHT22;21605;52.068;20.806;2022-07-23T02:10:36;20.10;90.50
35491;DHT22;21605;52.068;20.806;2022-07-23T02:13:01;20.10;90.50
35491;DHT22;21605;52.068;20.806;2022-07-23T02:15:27;20.10;90.70
35491;DHT22;21605;52.068;20.806;2022-07-23T02:17:54;20.10;90.70
35491;DHT22;21605;52.068;20.806;2022-07-23T02:20:21;20.10;91.20
35491;DHT22;21605;52.068;20.806;2022-07-23T02:22:47;20.00;91.00
35491;DHT22;21605;52.068;20.806;2022-07-23T02:25:12;20.00;90.90
35491;DHT22;21605;52.068;20.806;2022-07-23T02:27:38;20.00;91.50
35491;DHT22;21605;52.068;20.806;2022-07-23T02:30:05;20.00;91.20
35491;DHT22;21605;52.068;20.806;2022-07-23T02:32:30;19.90;91.20
35491;DHT22;21605;52.068;20.806;2022-07-23T02:34:56;19.90;90.70
35491;DHT22;21605;52.068;20.806;2022-07-23T02:37:22;19.90;91.20
35491;DHT22;21605;52.068;20.806;2022-07-23T02:39:47;19.90;91.20
35491;DHT22;21605;52.068;20.806;2022-07-23T02:42:16;19.90;91.30
35491;DHT22;21605;52.068;20.806;2022-07-23T02:44:43;19.80;91.20
35491;DHT22;21605;52.068;20.806;2022-07-23T02:47:08;19.80;91.30
35491;DHT22;21605;52.068;20.806;2022-07-23T02:49:34;19.80;91.60
35491;DHT22;21605;52.068;20.806;2022-07-23T02:51:59;19.70;91.60
35491;DHT22;21605;52.068;20.806;2022-07-23T02:54:25;19.70;91.50
35491;DHT22;21605;52.068;20.806;2022-07-23T02:56:51;19.70;91.00
35491;DHT22;21605;52.068;20.806;2022-07-23T02:59:17;19.70;91.10
35491;DHT22;21605;52.068;20.806;2022-07-23T03:01:43;19.70;91.00
35491;DHT22;21605;52.068;20.806;2022-07-23T03:04:09;19.60;91.50
35491;DHT22;21605;52.068;20.806;2022-07-23T03:06:35;19.60;91.70
35491;DHT22;21605;52.068;20.806;2022-07-23T03:09:01;19.60;91.50
35491;DHT22;21605;52.068;20.806;2022-07-23T03:11:28;19.60;91.60
35491;DHT22;21605;52.068;20.806;2022-07-23T03:13:54;19.50;92.00
35491;DHT22;21605;52.068;20.806;2022-07-23T03:16:19;19.50;91.80
35491;DHT22;21605;52.068;20.806;2022-07-23T03:18:45;19.50;91.80
35491;DHT22;21605;52.068;20.806;2022-07-23T03:21:11;19.50;91.90
35491;DHT22;21605;52.068;20.806;2022-07-23T03:23:36;19.50;92.30
35491;DHT22;21605;52.068;20.806;2022-07-23T03:26:02;19.50;92.50
35491;DHT22;21605;52.068;20.806;2022-07-23T03:28:28;19.50;92.00
35491;DHT22;21605;52.068;20.806;2022-07-23T03:30:53;19.50;92.50
35491;DHT22;21605;52.068;20.806;2022-07-23T03:33:19;19.50;92.70
35491;DHT22;21605;52.068;20.806;2022-07-23T03:35:46;19.50;92.30
35491;DHT22;21605;52.068;20.806;2022-07-23T03:38:13;19.50;92.70
35491;DHT22;21605;52.068;20.806;2022-07-23T03:40:39;19.50;92.90
35491;DHT22;21605;52.068;20.806;2022-07-23T03:43:04;19.50;92.70
35491;DHT22;21605;52.068;20.806;2022-07-23T03:45:30;19.50;92.70
35491;DHT22;21605;52.068;20.806;2022-07-23T03:47:56;19.50;92.50
35491;DHT22;21605;52.068;20.806;2022-07-23T03:50:22;19.60;92.70
35491;DHT22;21605;52.068;20.806;2022-07-23T03:52:47;19.60;92.70
35491;DHT22;21605;52.068;20.806;2022-07-23T03:55:13;19.60;92.80
35491;DHT22;21605;52.068;20.806;2022-07-23T03:57:39;19.60;92.90
35491;DHT22;21605;52.068;20.806;2022-07-23T04:00:07;19.70;92.90
35491;DHT22;21605;52.068;20.806;2022-07-23T04:02:34;19.70;93.00
35491;DHT22;21605;52.068;20.806;2022-07-23T04:05:00;19.70;93.70
35491;DHT22;21605;52.068;20.806;2022-07-23T04:07:26;19.80;93.10
35491;DHT22;21605;52.068;20.806;2022-07-23T04:09:52;19.80;93.10
35491;DHT22;21605;52.068;20.806;2022-07-23T04:12:17;19.90;93.20
35491;DHT22;21605;52.068;20.806;2022-07-23T04:14:43;19.90;93.30
35491;DHT22;21605;52.068;20.806;2022-07-23T04:17:09;20.00;93.60
35491;DHT22;21605;52.068;20.806;2022-07-23T04:19:35;20.00;93.20
35491;DHT22;21605;52.068;20.806;2022-07-23T04:22:05;20.10;93.40
35491;DHT22;21605;52.068;20.806;2022-07-23T04:24:31;20.10;93.10
35491;DHT22;21605;52.068;20.806;2022-07-23T04:26:56;20.20;94.00
35491;DHT22;21605;52.068;20.806;2022-07-23T04:29:23;20.20;93.50
35491;DHT22;21605;52.068;20.806;2022-07-23T04:31:49;20.30;93.40
35491;DHT22;21605;52.068;20.806;2022-07-23T04:34:14;20.30;93.70
35491;DHT22;21605;52.068;20.806;2022-07-23T04:36:40;20.40;93.90
35491;DHT22;21605;52.068;20.806;2022-07-23T04:39:05;20.50;93.90
35491;DHT22;21605;52.068;20.806;2022-07-23T04:41:31;20.50;93.70
35491;DHT22;21605;52.068;20.806;2022-07-23T04:43:57;20.60;93.70
35491;DHT22;21605;52.068;20.806;2022-07-23T04:46:23;20.60;93.80
35491;DHT22;21605;52.068;20.806;2022-07-23T04:48:48;20.70;93.20
35491;DHT22;21605;52.068;20.806;2022-07-23T04:51:14;20.70;93.60
35491;DHT22;21605;52.068;20.806;2022-07-23T04:53:40;20.80;93.70
35491;DHT22;21605;52.068;20.806;2022-07-23T04:56:05;20.80;93.50
35491;DHT22;21605;52.068;20.806;2022-07-23T04:58:31;20.90;93.80
35491;DHT22;21605;52.068;20.806;2022-07-23T05:00:57;20.90;93.10
35491;DHT22;21605;52.068;20.806;2022-07-23T05:03:23;21.00;93.40
35491;DHT22;21605;52.068;20.806;2022-07-23T05:05:49;21.00;93.50
35491;DHT22;21605;52.068;20.806;2022-07-23T05:08:15;21.10;93.30
35491;DHT22;21605;52.068;20.806;2022-07-23T05:10:41;21.20;93.30
35491;DHT22;21605;52.068;20.806;2022-07-23T05:13:06;21.20;93.30
35491;DHT22;21605;52.068;20.806;2022-07-23T05:15:32;21.30;93.30
35491;DHT22;21605;52.068;20.806;2022-07-23T05:17:58;21.30;93.30
35491;DHT22;21605;52.068;20.806;2022-07-23T05:20:24;21.40;93.40
35491;DHT22;21605;52.068;20.806;2022-07-23T05:22:49;21.50;93.20
35491;DHT22;21605;52.068;20.806;2022-07-23T05:25:15;21.50;93.00
35491;DHT22;21605;52.068;20.806;2022-07-23T05:27:40;21.60;92.00
35491;DHT22;21605;52.068;20.806;2022-07-23T05:30:07;21.60;92.50
35491;DHT22;21605;52.068;20.806;2022-07-23T05:32:32;21.70;93.00
35491;DHT22;21605;52.068;20.806;2022-07-23T05:34:58;21.80;92.90
35491;DHT22;21605;52.068;20.806;2022-07-23T05:37:24;21.90;92.40
35491;DHT22;21605;52.068;20.806;2022-07-23T05:39:49;21.90;92.40
35491;DHT22;21605;52.068;20.806;2022-07-23T05:42:15;22.00;92.60
35491;DHT22;21605;52.068;20.806;2022-07-23T05:44:41;22.10;92.70
35491;DHT22;21605;52.068;20.806;2022-07-23T05:47:06;22.20;92.40
35491;DHT22;21605;52.068;20.806;2022-07-23T05:49:32;22.20;92.40
35491;DHT22;21605;52.068;20.806;2022-07-23T05:51:58;22.30;92.60
35491;DHT22;21605;52.068;20.806;2022-07-23T05:54:24;22.40;92.50
35491;DHT22;21605;52.068;20.806;2022-07-23T05:56:50;22.50;93.00
35491;DHT22;21605;52.068;20.806;2022-07-23T05:59:15;22.70;92.80
35491;DHT22;21605;52.068;20.806;2022-07-23T06:01:41;22.80;92.90
35491;DHT22;21605;52.068;20.806;2022-07-23T06:04:07;22.90;92.80
35491;DHT22;21605;52.068;20.806;2022-07-23T06:06:33;23.00;92.90
35491;DHT22;21605;52.068;20.806;2022-07-23T06:08:58;23.10;93.50
35491;DHT22;21605;52.068;20.806;2022-07-23T06:11:24;23.20;92.40
35491;DHT22;21605;52.068;20.806;2022-07-23T06:13:50;23.40;92.40
35491;DHT22;21605;52.068;20.806;2022-07-23T06:16:15;23.50;92.40
35491;DHT22;21605;52.068;20.806;2022-07-23T06:18:41;23.70;92.20
35491;DHT22;21605;52.068;20.806;2022-07-23T06:21:07;23.80;92.30
35491;DHT22;21605;52.068;20.806;2022-07-23T06:23:32;23.90;92.20
35491;DHT22;21605;52.068;20.806;2022-07-23T06:25:58;24.10;92.20
35491;DHT22;21605;52.068;20.806;2022-07-23T06:28:23;24.20;91.40
35491;DHT22;21605;52.068;20.806;2022-07-23T06:30:49;24.40;91.40
35491;DHT22;21605;52.068;20.806;2022-07-23T06:33:15;24.50;91.00
35491;DHT22;21605;52.068;20.806;2022-07-23T06:35:40;24.60;90.70
35491;DHT22;21605;52.068;20.806;2022-07-23T06:38:06;24.80;90.80
35491;DHT22;21605;52.068;20.806;2022-07-23T06:40:31;24.90;90.70
35491;DHT22;21605;52.068;20.806;2022-07-23T06:42:57;25.00;90.50
35491;DHT22;21605;52.068;20.806;2022-07-23T06:45:23;25.20;90.20
35491;DHT22;21605;52.068;20.806;2022-07-23T06:47:48;25.30;90.00
35491;DHT22;21605;52.068;20.806;2022-07-23T06:50:14;25.40;90.10
35491;DHT22;21605;52.068;20.806;2022-07-23T06:52:40;25.60;89.50
35491;DHT22;21605;52.068;20.806;2022-07-23T06:55:05;25.70;87.80
35491;DHT22;21605;52.068;20.806;2022-07-23T06:57:31;25.80;87.50
35491;DHT22;21605;52.068;20.806;2022-07-23T06:59:57;25.90;86.20
35491;DHT22;21605;52.068;20.806;2022-07-23T07:02:22;26.00;86.50
35491;DHT22;21605;52.068;20.806;2022-07-23T07:04:49;26.10;86.90
35491;DHT22;21605;52.068;20.806;2022-07-23T07:07:14;26.30;86.10
35491;DHT22;21605;52.068;20.806;2022-07-23T07:09:40;26.40;86.20
35491;DHT22;21605;52.068;20.806;2022-07-23T07:12:06;26.40;85.80
35491;DHT22;21605;52.068;20.806;2022-07-23T07:14:31;26.60;85.80
35491;DHT22;21605;52.068;20.806;2022-07-23T07:16:57;26.70;85.90
35491;DHT22;21605;52.068;20.806;2022-07-23T07:19:23;26.80;85.00
35491;DHT22;21605;52.068;20.806;2022-07-23T07:21:48;26.90;83.90
35491;DHT22;21605;52.068;20.806;2022-07-23T07:24:14;27.00;84.80
35491;DHT22;21605;52.068;20.806;2022-07-23T07:26:39;27.10;84.00
35491;DHT22;21605;52.068;20.806;2022-07-23T07:29:06;27.20;82.60
35491;DHT22;21605;52.068;20.806;2022-07-23T07:31:32;27.40;82.60
35491;DHT22;21605;52.068;20.806;2022-07-23T07:33:58;27.50;83.20
35491;DHT22;21605;52.068;20.806;2022-07-23T07:36:24;27.60;83.20
35491;DHT22;21605;52.068;20.806;2022-07-23T07:38:50;27.70;82.40
35491;DHT22;21605;52.068;20.806;2022-07-23T07:41:15;27.90;81.40
35491;DHT22;21605;52.068;20.806;2022-07-23T07:43:41;28.00;81.60
35491;DHT22;21605;52.068;20.806;2022-07-23T07:46:07;28.10;81.80
35491;DHT22;21605;52.068;20.806;2022-07-23T07:48:37;28.20;80.00
35491;DHT22;21605;52.068;20.806;2022-07-23T07:51:06;28.40;79.50
35491;DHT22;21605;52.068;20.806;2022-07-23T07:53:32;28.50;79.10
35491;DHT22;21605;52.068;20.806;2022-07-23T07:55:57;28.60;79.20
35491;DHT22;21605;52.068;20.806;2022-07-23T07:58:23;28.80;78.80
35491;DHT22;21605;52.068;20.806;2022-07-23T08:00:48;28.90;78.00
35491;DHT22;21605;52.068;20.806;2022-07-23T08:03:14;29.10;77.70
35491;DHT22;21605;52.068;20.806;2022-07-23T08:05:40;29.30;77.00
35491;DHT22;21605;52.068;20.806;2022-07-23T08:08:05;29.40;76.00
35491;DHT22;21605;52.068;20.806;2022-07-23T08:10:31;29.60;75.40
35491;DHT22;21605;52.068;20.806;2022-07-23T08:12:58;29.70;74.90
35491;DHT22;21605;52.068;20.806;2022-07-23T08:15:26;29.80;75.20
35491;DHT22;21605;52.068;20.806;2022-07-23T08:17:52;30.00;74.00
35491;DHT22;21605;52.068;20.806;2022-07-23T08:20:20;30.20;74.70
35491;DHT22;21605;52.068;20.806;2022-07-23T08:22:55;30.40;74.00
35491;DHT22;21605;52.068;20.806;2022-07-23T08:25:26;30.50;72.20
35491;DHT22;21605;52.068;20.806;2022-07-23T08:27:52;30.70;71.60
35491;DHT22;21605;52.068;20.806;2022-07-23T08:30:18;30.80;70.60
35491;DHT22;21605;52.068;20.806;2022-07-23T08:35:17;31.10;69.90
35491;DHT22;21605;52.068;20.806;2022-07-23T08:37:43;31.20;68.90
35491;DHT22;21605;52.068;20.806;2022-07-23T08:40:09;31.40;69.90
35491;DHT22;21605;52.068;20.806;2022-07-23T08:42:35;31.50;69.30
35491;DHT22;21605;52.068;20.806;2022-07-23T08:45:02;31.70;69.10
35491;DHT22;21605;52.068;20.806;2022-07-23T08:47:29;31.80;67.80
35491;DHT22;21605;52.068;20.806;2022-07-23T08:49:58;31.90;66.70
35491;DHT22;21605;52.068;20.806;2022-07-23T08:52:25;31.90;67.50
35491;DHT22;21605;52.068;20.806;2022-07-23T08:54:51;32.20;66.80
35491;DHT22;21605;52.068;20.806;2022-07-23T08:57:18;32.30;67.60
35491;DHT22;21605;52.068;20.806;2022-07-23T08:59:44;32.50;63.70
35491;DHT22;21605;52.068;20.806;2022-07-23T09:02:09;32.60;65.80
35491;DHT22;21605;52.068;20.806;2022-07-23T09:04:35;32.80;64.50
35491;DHT22;21605;52.068;20.806;2022-07-23T09:07:02;32.90;63.00
35491;DHT22;21605;52.068;20.806;2022-07-23T09:09:27;33.00;62.80
35491;DHT22;21605;52.068;20.806;2022-07-23T09:12:07;33.10;62.40
35491;DHT22;21605;52.068;20.806;2022-07-23T09:14:51;33.30;62.50
35491;DHT22;21605;52.068;20.806;2022-07-23T09:17:18;33.50;60.90
35491;DHT22;21605;52.068;20.806;2022-07-23T09:19:44;33.50;59.30
35491;DHT22;21605;52.068;20.806;2022-07-23T09:22:22;33.80;60.10
35491;DHT22;21605;52.068;20.806;2022-07-23T09:30:12;34.50;59.10
35491;DHT22;21605;52.068;20.806;2022-07-23T09:32:39;34.70;57.50
35491;DHT22;21605;52.068;20.806;2022-07-23T09:35:05;34.90;56.50
35491;DHT22;21605;52.068;20.806;2022-07-23T09:37:31;35.30;58.00
35491;DHT22;21605;52.068;20.806;2022-07-23T09:40:05;35.50;55.60
35491;DHT22;21605;52.068;20.806;2022-07-23T09:42:31;35.80;55.60
35491;DHT22;21605;52.068;20.806;2022-07-23T09:44:58;36.20;56.80
35491;DHT22;21605;52.068;20.806;2022-07-23T09:47:28;36.60;54.50
35491;DHT22;21605;52.068;20.806;2022-07-23T09:50:02;37.00;54.50
35491;DHT22;21605;52.068;20.806;2022-07-23T09:52:33;37.40;51.90
35491;DHT22;21605;52.068;20.806;2022-07-23T09:55:01;37.80;53.10
35491;DHT22;21605;52.068;20.806;2022-07-23T09:57:27;38.20;52.20
35491;DHT22;21605;52.068;20.806;2022-07-23T09:59:55;38.40;49.50
35491;DHT22;21605;52.068;20.806;2022-07-23T10:02:23;38.50;49.40
35491;DHT22;21605;52.068;20.806;2022-07-23T10:04:51;38.50;48.60
35491;DHT22;21605;52.068;20.806;2022-07-23T10:07:21;38.40;47.60
35491;DHT22;21605;52.068;20.806;2022-07-23T10:09:47;38.20;47.70
35491;DHT22;21605;52.068;20.806;2022-07-23T10:12:14;37.90;48.00
35491;DHT22;21605;52.068;20.806;2022-07-23T10:14:46;37.80;48.60
35491;DHT22;21605;52.068;20.806;2022-07-23T10:17:12;37.50;47.80
35491;DHT22;21605;52.068;20.806;2022-07-23T10:19:38;37.30;49.70
35491;DHT22;21605;52.068;20.806;2022-07-23T10:22:19;37.20;48.60
35491;DHT22;21605;52.068;20.806;2022-07-23T10:28:02;37.00;50.60
35491;DHT22;21605;52.068;20.806;2022-07-23T10:31:01;36.80;49.60
35491;DHT22;21605;52.068;20.806;2022-07-23T10:33:57;36.60;49.20
35491;DHT22;21605;52.068;20.806;2022-07-23T10:36:42;36.30;50.00
35491;DHT22;21605;52.068;20.806;2022-07-23T10:39:24;36.20;51.00
35491;DHT22;21605;52.068;20.806;2022-07-23T10:41:51;35.80;50.50
35491;DHT22;21605;52.068;20.806;2022-07-23T10:44:19;35.70;51.50
35491;DHT22;21605;52.068;20.806;2022-07-23T10:47:04;35.60;51.50
35491;DHT22;21605;52.068;20.806;2022-07-23T10:49:47;35.60;51.90
35491;DHT22;21605;52.068;20.806;2022-07-23T10:54:43;35.50;51.10
35491;DHT22;21605;52.068;20.806;2022-07-23T10:57:10;35.50;51.70
35491;DHT22;21605;52.068;20.806;2022-07-23T11:02:34;35.40;51.40
35491;DHT22;21605;52.068;20.806;2022-07-23T11:05:14;35.40;50.70
35491;DHT22;21605;52.068;20.806;2022-07-23T11:24:15;35.30;50.10
35491;DHT22;21605;52.068;20.806;2022-07-23T11:36:56;35.30;51.00
35491;DHT22;21605;52.068;20.806;2022-07-23T11:39:25;35.40;51.30
35491;DHT22;21605;52.068;20.806;2022-07-23T11:41:52;35.40;51.90
35491;DHT22;21605;52.068;20.806;2022-07-23T11:44:28;35.40;50.80
35491;DHT22;21605;52.068;20.806;2022-07-23T11:47:02;35.40;50.80
35491;DHT22;21605;52.068;20.806;2022-07-23T11:49:29;35.30;50.20
35491;DHT22;21605;52.068;20.806;2022-07-23T11:52:06;35.30;51.20
35491;DHT22;21605;52.068;20.806;2022-07-23T11:54:33;35.30;50.00
35491;DHT22;21605;52.068;20.806;2022-07-23T11:56:59;35.30;49.90
35491;DHT22;21605;52.068;20.806;2022-07-23T11:59:32;35.20;49.30
35491;DHT22;21605;52.068;20.806;2022-07-23T12:01:59;35.20;50.20
35491;DHT22;21605;52.068;20.806;2022-07-23T12:04:40;35.20;50.00
35491;DHT22;21605;52.068;20.806;2022-07-23T12:07:35;35.20;51.30
35491;DHT22;21605;52.068;20.806;2022-07-23T12:13:02;35.00;51.00
35491;DHT22;21605;52.068;20.806;2022-07-23T12:15:38;35.10;51.20
35491;DHT22;21605;52.068;20.806;2022-07-23T12:18:06;35.10;51.20
35491;DHT22;21605;52.068;20.806;2022-07-23T12:20:35;35.00;49.90
35491;DHT22;21605;52.068;20.806;2022-07-23T12:23:03;35.00;51.80
35491;DHT22;21605;52.068;20.806;2022-07-23T12:25:34;35.00;49.90
35491;DHT22;21605;52.068;20.806;2022-07-23T12:30:41;35.00;50.70
35491;DHT22;21605;52.068;20.806;2022-07-23T12:33:09;35.00;52.30
35491;DHT22;21605;52.068;20.806;2022-07-23T12:35:46;35.10;52.20
35491;DHT22;21605;52.068;20.806;2022-07-23T12:38:15;35.00;52.20
35491;DHT22;21605;52.068;20.806;2022-07-23T12:40:48;35.00;51.00
35491;DHT22;21605;52.068;20.806;2022-07-23T12:45:52;34.80;51.60
35491;DHT22;21605;52.068;20.806;2022-07-23T12:53:30;34.50;51.50
35491;DHT22;21605;52.068;20.806;2022-07-23T12:56:03;34.50;51.20
35491;DHT22;21605;52.068;20.806;2022-07-23T12:58:46;34.50;51.30
35491;DHT22;21605;52.068;20.806;2022-07-23T13:09:07;34.50;51.80
35491;DHT22;21605;52.068;20.806;2022-07-23T13:11:33;34.40;53.20
35491;DHT22;21605;52.068;20.806;2022-07-23T13:13:59;34.30;51.00
35491;DHT22;21605;52.068;20.806;2022-07-23T13:16:29;34.30;52.20
35491;DHT22;21605;52.068;20.806;2022-07-23T13:18:57;34.30;52.80
35491;DHT22;21605;52.068;20.806;2022-07-23T13:21:23;34.20;51.80
35491;DHT22;21605;52.068;20.806;2022-07-23T13:23:49;34.10;51.80
35491;DHT22;21605;52.068;20.806;2022-07-23T13:26:15;34.20;53.20
35491;DHT22;21605;52.068;20.806;2022-07-23T13:28:41;34.20;52.30
35491;DHT22;21605;52.068;20.806;2022-07-23T13:31:07;34.20;51.90
35491;DHT22;21605;52.068;20.806;2022-07-23T13:33:33;34.10;53.50
35491;DHT22;21605;52.068;20.806;2022-07-23T13:35:59;34.00;51.30
35491;DHT22;21605;52.068;20.806;2022-07-23T13:38:25;33.90;51.90
35491;DHT22;21605;52.068;20.806;2022-07-23T13:40:51;33.80;52.90
35491;DHT22;21605;52.068;20.806;2022-07-23T13:43:19;33.80;52.60
35491;DHT22;21605;52.068;20.806;2022-07-23T13:45:46;33.60;52.90
35491;DHT22;21605;52.068;20.806;2022-07-23T13:48:13;33.60;52.90
35491;DHT22;21605;52.068;20.806;2022-07-23T13:50:40;33.60;53.90
35491;DHT22;21605;52.068;20.806;2022-07-23T13:53:08;33.50;53.00
35491;DHT22;21605;52.068;20.806;2022-07-23T13:55:35;33.40;53.70
35491;DHT22;21605;52.068;20.806;2022-07-23T13:58:03;33.40;53.90
35491;DHT22;21605;52.068;20.806;2022-07-23T14:00:33;33.30;53.90
35491;DHT22;21605;52.068;20.806;2022-07-23T14:02:59;33.10;53.60
35491;DHT22;21605;52.068;20.806;2022-07-23T14:05:25;33.00;53.80
35491;DHT22;21605;52.068;20.806;2022-07-23T14:07:51;33.00;54.00
35491;DHT22;21605;52.068;20.806;2022-07-23T14:10:19;32.80;53.90
35491;DHT22;21605;52.068;20.806;2022-07-23T14:12:46;32.70;54.40
35491;DHT22;21605;52.068;20.806;2022-07-23T14:15:13;32.60;55.10
35491;DHT22;21605;52.068;20.806;2022-07-23T14:17:41;32.50;55.60
35491;DHT22;21605;52.068;20.806;2022-07-23T14:20:08;32.40;55.80
35491;DHT22;21605;52.068;20.806;2022-07-23T14:22:34;32.30;55.80
35491;DHT22;21605;52.068;20.806;2022-07-23T14:25:00;32.20;56.60
35491;DHT22;21605;52.068;20.806;2022-07-23T14:27:26;32.10;57.20
35491;DHT22;21605;52.068;20.806;2022-07-23T14:29:53;31.80;57.90
35491;DHT22;21605;52.068;20.806;2022-07-23T14:32:19;31.30;58.30
35491;DHT22;21605;52.068;20.806;2022-07-23T14:34:45;30.90;59.70
35491;DHT22;21605;52.068;20.806;2022-07-23T14:37:11;30.40;61.90
35491;DHT22;21605;52.068;20.806;2022-07-23T14:39:37;30.10;62.40
35491;DHT22;21605;52.068;20.806;2022-07-23T14:42:04;29.60;64.40
35491;DHT22;21605;52.068;20.806;2022-07-23T14:44:29;29.20;66.20
35491;DHT22;21605;52.068;20.806;2022-07-23T14:46:55;28.90;65.60
35491;DHT22;21605;52.068;20.806;2022-07-23T14:49:21;28.60;67.50
35491;DHT22;21605;52.068;20.806;2022-07-23T14:51:47;28.20;70.10
35491;DHT22;21605;52.068;20.806;2022-07-23T14:54:14;27.90;70.30
35491;DHT22;21605;52.068;20.806;2022-07-23T14:56:40;27.50;71.50
35491;DHT22;21605;52.068;20.806;2022-07-23T14:59:06;27.50;70.70
35491;DHT22;21605;52.068;20.806;2022-07-23T15:01:32;27.20;73.20
35491;DHT22;21605;52.068;20.806;2022-07-23T15:03:58;26.70;73.70
35491;DHT22;21605;52.068;20.806;2022-07-23T15:06:24;26.30;76.60
35491;DHT22;21605;52.068;20.806;2022-07-23T15:08:50;26.00;75.60
35491;DHT22;21605;52.068;20.806;2022-07-23T15:11:16;25.80;77.80
35491;DHT22;21605;52.068;20.806;2022-07-23T15:13:41;25.60;79.30
35491;DHT22;21605;52.068;20.806;2022-07-23T15:16:08;25.50;76.10
35491;DHT22;21605;52.068;20.806;2022-07-23T15:18:34;25.10;79.10
35491;DHT22;21605;52.068;20.806;2022-07-23T15:21:00;24.90;79.90
35491;DHT22;21605;52.068;20.806;2022-07-23T15:23:26;24.50;81.20
35491;DHT22;21605;52.068;20.806;2022-07-23T15:25:54;24.40;82.00
35491;DHT22;21605;52.068;20.806;2022-07-23T15:28:19;23.50;82.70
35491;DHT22;21605;52.068;20.806;2022-07-23T15:30:45;24.00;86.10
35491;DHT22;21605;52.068;20.806;2022-07-23T15:33:11;24.00;85.40
35491;DHT22;21605;52.068;20.806;2022-07-23T15:35:36;23.90;85.50
35491;DHT22;21605;52.068;20.806;2022-07-23T15:38:02;23.80;85.60
35491;DHT22;21605;52.068;20.806;2022-07-23T15:40:27;23.70;86.90
35491;DHT22;21605;52.068;20.806;2022-07-23T15:42:53;23.70;88.60
35491;DHT22;21605;52.068;20.806;2022-07-23T15:45:19;23.60;88.20
35491;DHT22;21605;52.068;20.806;2022-07-23T15:47:47;23.60;86.60
35491;DHT22;21605;52.068;20.806;2022-07-23T15:50:13;23.60;87.10
35491;DHT22;21605;52.068;20.806;2022-07-23T15:52:38;23.50;86.60
35491;DHT22;21605;52.068;20.806;2022-07-23T15:55:05;23.40;90.00
35491;DHT22;21605;52.068;20.806;2022-07-23T15:57:31;23.40;88.20
35491;DHT22;21605;52.068;20.806;2022-07-23T15:59:56;23.40;88.30
35491;DHT22;21605;52.068;20.806;2022-07-23T16:02:23;23.40;89.30
35491;DHT22;21605;52.068;20.806;2022-07-23T16:04:49;23.30;90.10
35491;DHT22;21605;52.068;20.806;2022-07-23T16:07:18;23.30;88.10
35491;DHT22;21605;52.068;20.806;2022-07-23T16:09:44;23.20;90.60
35491;DHT22;21605;52.068;20.806;2022-07-23T16:12:11;24.70;91.30
35491;DHT22;21605;52.068;20.806;2022-07-23T16:14:38;23.20;87.30
35491;DHT22;21605;52.068;20.806;2022-07-23T16:17:04;23.20;89.50
35491;DHT22;21605;52.068;20.806;2022-07-23T16:19:31;23.10;90.10
35491;DHT22;21605;52.068;20.806;2022-07-23T16:21:57;23.10;89.90